Terminal Aerodrome Forecast
Issued by NWS North Platte, NE

Home | Current Version | Previous Version | Graphics & Text | Print | Product List | Glossary On
Versions: 1 2 3 4 5 6 7 8 9 10 11 12 13 14
000
FTUS43 KLBF 231700
TAFVTN
TAF
KVTN 231736Z 2318/2418 33025G38KT 2SM -SN FEW015 BKN035 OVC050
      TEMPO 2318/2321 1SM -SN BKN010
     FM232100 33022G32KT 3SM -SN FEW015 OVC025
     FM240100 33015G25KT P6SM OVC025
     FM240600 31012KT P6SM BKN025 OVC050=

USA.gov is the U.S. government's official web portal to all federal, state and local government web resources and services.